Ana Sayfa
METAR-TAF:

METAR-TAF

Havaalanları :

Kadala Havalimanı

Çita, Rusya

Enlem: 52-05N, Boylam: 113-29E, yükseklik: 685 m

Güncel hava durumu gözlemi

Rapor saat 11:00 UTC de 26 dakika önce yapıldı.
Rüzgar kuzeybatıdan 2 kt
Sıcaklık -29°C
Nem 75%
Basınç 1031 hPa
Görüş mesafesi: 5000 m
Pus

METAR: UIAA 101100Z 31001MPS 5000 BR NSC M29/M32 Q1031 R29/420150 NOSIG RMK QFE714/0952

Saat: 20:26 (11:26 UTC)

Tahmin

Rapor saat 08:00 UTC de 3 saat ve 26 dakika önce yapıldı.
Ayın 10'si saat 09 UTC'den ayın 11'si saat 09 UTC'ye kadar geçerli Tahmin
Rüzgar doğudan 6 kt
Görüş mesafesi: 3100 m
Pus
Geçici
ayın 10'si saat 10 UTC'den ayın 10'si saat 23 UTC'ye kadar
Görüş mesafesi: 1200 m
Pus
Dönüşüyor
ayın 11'si saat 00 UTC'den ayın 11'si saat 02 UTC'ye kadar
Rüzgar güneybatıdan 6 kt ve 16 kt'a kadar ani rüzgarlar
Görüş mesafesi 10 km veya daha fazla

TAF: UIAA 100800Z 1009/1109 08003MPS 3100 BR NSC TEMPO 1010/1023 1200 BR BECMG 1100/1102 22003G08MPS 9999 NSW

4.000'den fazla havaalanı için hava durumu gözlemleri ve tahminleri (METAR ve TAF raporları).

Kullanılabilir istasyonlar harita üzerinde sarı ve kırmızı noktalarla gösterilir.

İstasyonun adını görmek için fareyi noktanın üzerinde gezdirin.

Sonrasında hava gözlem ve tahminlerini görmek için tıklayın.

Haritayı değiştirmek için: yaklaştırmak için siyah artı işaretli yeşil düğmeye ve uzaklaştırmak için de eksi işaretli düğmeye hızla tıklayın; bitişik haritalar için yeşil okları kullanın.


METAR-TAF: